Time;durP1;ratioP1;P1;durP2;ratioP2;P2;SDS_P1;SDS_P2;PMS_P1;PMS_P2;Temp;Humidity;BMP_temperature;BMP_pressure;BME280_temperature;BME280_humidity;BME280_pressure;Samples;Min_cycle;Max_cycle;Signal;HPM_P1;HPM_P2
2022/08/29 00:02:04;;;;;;;10.90;3.88;;;16.90;99.90;;;;;;5035132;28;20049;-68
2022/08/29 00:04:29;;;;;;;8.38;3.20;;;16.80;99.90;;;;;;5035176;28;20502;-68
2022/08/29 00:06:56;;;;;;;8.15;3.70;;;16.80;99.90;;;;;;5035078;28;20045;-68
2022/08/29 00:09:21;;;;;;;9.18;3.33;;;16.80;99.90;;;;;;5036278;28;20397;-68
2022/08/29 00:11:47;;;;;;;8.32;3.72;;;16.80;99.90;;;;;;5035283;28;20033;-68
2022/08/29 00:14:12;;;;;;;8.93;3.75;;;16.80;99.90;;;;;;5035018;28;20502;-68
2022/08/29 00:16:38;;;;;;;8.25;3.28;;;16.80;99.90;;;;;;5035110;28;20045;-68
2022/08/29 00:19:04;;;;;;;9.43;4.07;;;16.80;99.90;;;;;;5035028;28;20042;-68
2022/08/29 00:21:29;;;;;;;7.78;3.53;;;16.80;99.90;;;;;;5018587;28;20046;-68
2022/08/29 00:23:55;;;;;;;9.50;4.07;;;16.80;99.90;;;;;;5034730;28;20518;-68
2022/08/29 00:26:21;;;;;;;13.25;4.10;;;16.80;99.90;;;;;;5034777;28;20041;-68
2022/08/29 00:28:46;;;;;;;10.07;3.60;;;16.80;99.90;;;;;;5034901;28;20037;-68
2022/08/29 00:31:12;;;;;;;10.48;4.00;;;16.80;99.90;;;;;;5034647;28;20043;-68
2022/08/29 00:33:38;;;;;;;11.38;3.85;;;16.80;99.90;;;;;;5034597;28;20046;-68
2022/08/29 00:36:03;;;;;;;6.70;3.33;;;16.80;99.90;;;;;;5034508;28;20120;-68
2022/08/29 00:38:29;;;;;;;8.75;3.63;;;16.80;99.90;;;;;;5034338;28;20041;-68
2022/08/29 00:40:56;;;;;;;7.22;3.60;;;16.70;99.90;;;;;;5034532;28;20053;-68
2022/08/29 00:43:26;;;;;;;9.13;3.85;;;16.80;99.90;;;;;;5034392;28;20052;-68
2022/08/29 00:45:59;;;;;;;8.52;3.60;;;16.80;99.90;;;;;;5033974;28;20041;-68
2022/08/29 00:48:24;;;;;;;8.32;3.72;;;16.70;99.90;;;;;;5034596;28;20041;-68
2022/08/29 00:50:56;;;;;;;8.35;3.60;;;16.70;99.90;;;;;;5034303;28;20537;-68
2022/08/29 00:53:33;;;;;;;6.65;3.40;;;16.80;99.90;;;;;;5034572;28;20037;-68
2022/08/29 00:56:00;;;;;;;7.75;4.00;;;16.80;99.90;;;;;;5034267;28;20046;-68
2022/08/29 00:58:41;;;;;;;9.75;3.67;;;16.70;99.90;;;;;;5034087;28;20567;-68
2022/08/29 01:01:06;;;;;;;9.20;3.97;;;16.70;99.90;;;;;;5034161;28;20084;-68
2022/08/29 01:03:34;;;;;;;9.98;3.92;;;16.70;99.90;;;;;;5034173;28;20045;-68
2022/08/29 01:06:01;;;;;;;7.07;3.95;;;16.70;99.90;;;;;;5034269;28;20037;-68
2022/08/29 01:08:27;;;;;;;6.45;3.47;;;16.70;99.90;;;;;;5034177;28;20044;-68
2022/08/29 01:13:41;;;;;;;8.73;3.33;;;16.70;99.90;;;;;;5033916;28;20076;-68
2022/08/29 01:16:08;;;;;;;7.22;3.47;;;16.70;99.90;;;;;;5033834;28;20037;-68
2022/08/29 01:18:35;;;;;;;9.52;4.10;;;16.70;99.90;;;;;;5033958;28;20033;-68
2022/08/29 01:21:22;;;;;;;9.40;3.35;;;16.70;99.90;;;;;;5033786;28;20383;-68
2022/08/29 01:24:14;;;;;;;8.00;3.85;;;16.70;99.90;;;;;;5033669;28;20048;-68
2022/08/29 01:26:45;;;;;;;9.80;3.42;;;16.60;99.90;;;;;;5016867;28;20053;-68
2022/08/29 01:29:11;;;;;;;7.75;3.88;;;16.50;99.90;;;;;;5033564;28;20038;-68
2022/08/29 01:31:40;;;;;;;8.10;3.88;;;16.50;99.90;;;;;;5033757;28;20395;-68
2022/08/29 01:34:07;;;;;;;9.77;3.97;;;16.50;99.90;;;;;;5033779;28;20080;-68
2022/08/29 01:36:52;;;;;;;8.15;3.45;;;16.50;99.90;;;;;;5016951;28;20049;-68
2022/08/29 01:39:21;;;;;;;12.23;4.10;;;16.60;99.90;;;;;;5033393;28;20048;-68
2022/08/29 01:41:47;;;;;;;9.43;4.07;;;16.60;99.90;;;;;;5033619;28;20055;-68
2022/08/29 01:44:18;;;;;;;7.40;3.70;;;16.60;99.90;;;;;;5033237;28;20087;-68
2022/08/29 01:46:45;;;;;;;9.80;3.90;;;16.60;99.90;;;;;;5033284;28;20041;-68
2022/08/29 01:49:11;;;;;;;9.02;3.30;;;16.60;99.90;;;;;;5033049;28;20037;-68
2022/08/29 01:51:38;;;;;;;8.48;3.67;;;16.60;99.90;;;;;;5033192;28;20042;-68
2022/08/29 01:54:07;;;;;;;13.00;3.67;;;16.60;99.90;;;;;;5033362;28;20049;-68
2022/08/29 01:56:35;;;;;;;8.25;3.80;;;16.60;99.90;;;;;;5032261;28;20117;-68
2022/08/29 01:59:03;;;;;;;7.55;3.72;;;16.60;99.90;;;;;;5032943;28;20066;-68
2022/08/29 02:01:32;;;;;;;8.15;3.33;;;16.60;99.90;;;;;;5032997;28;20540;-68
2022/08/29 02:03:58;;;;;;;7.97;4.45;;;16.60;99.90;;;;;;5033096;28;20041;-68
2022/08/29 02:06:25;;;;;;;5.88;3.20;;;16.60;99.90;;;;;;5033130;28;20555;-68
2022/08/29 02:08:50;;;;;;;8.52;3.97;;;16.60;99.90;;;;;;5032800;28;20052;-68
2022/08/29 02:11:17;;;;;;;7.43;3.83;;;16.60;99.90;;;;;;5033019;28;20033;-68
2022/08/29 02:13:50;;;;;;;8.73;3.53;;;16.60;99.90;;;;;;5032749;28;20037;-68
2022/08/29 02:16:16;;;;;;;8.95;3.50;;;16.70;99.90;;;;;;5032749;28;20100;-68
2022/08/29 02:18:42;;;;;;;8.48;4.15;;;16.60;99.90;;;;;;5032608;28;20049;-68
2022/08/29 02:21:10;;;;;;;7.88;3.80;;;16.60;99.90;;;;;;5032889;28;20041;-68
2022/08/29 02:23:36;;;;;;;8.23;3.90;;;16.70;99.90;;;;;;5032519;28;20080;-68
2022/08/29 02:26:03;;;;;;;7.40;3.40;;;16.70;99.90;;;;;;5032520;28;20045;-68
2022/08/29 02:28:30;;;;;;;9.88;4.07;;;16.60;99.90;;;;;;5032635;28;20029;-68
2022/08/29 02:30:55;;;;;;;6.90;3.78;;;16.60;99.90;;;;;;5032473;28;20037;-68
2022/08/29 02:33:22;;;;;;;8.63;3.70;;;16.70;99.90;;;;;;5032393;28;20095;-68
2022/08/29 02:35:47;;;;;;;8.43;3.97;;;16.60;99.90;;;;;;5032605;28;20490;-68
2022/08/29 02:38:14;;;;;;;8.55;3.90;;;16.60;99.90;;;;;;5032133;28;20044;-68
2022/08/29 02:40:40;;;;;;;9.70;3.95;;;16.60;99.90;;;;;;5032281;28;20067;-68
2022/08/29 02:43:07;;;;;;;9.13;3.92;;;16.60;99.90;;;;;;5032505;28;20073;-68
2022/08/29 02:45:36;;;;;;;9.07;3.88;;;16.60;99.90;;;;;;5032151;28;20038;-68
2022/08/29 02:48:02;;;;;;;11.27;4.45;;;16.60;99.90;;;;;;5032105;28;20033;-68
2022/08/29 02:50:28;;;;;;;9.38;4.05;;;16.60;99.90;;;;;;5032126;28;20486;-68
2022/08/29 02:52:54;;;;;;;7.88;4.10;;;16.60;99.90;;;;;;5032084;28;20071;-68
2022/08/29 02:55:20;;;;;;;8.65;4.00;;;16.60;99.90;;;;;;5032092;28;20052;-68
2022/08/29 02:57:46;;;;;;;6.88;3.60;;;16.60;99.90;;;;;;5031983;28;20049;-68
2022/08/29 03:00:16;;;;;;;7.15;3.83;;;16.60;99.90;;;;;;5033468;28;20049;-68
2022/08/29 03:02:43;;;;;;;10.35;3.90;;;16.60;99.90;;;;;;5031971;28;20037;-68
2022/08/29 03:05:08;;;;;;;9.10;4.38;;;16.50;99.90;;;;;;5031946;28;20049;-68
2022/08/29 03:07:34;;;;;;;7.22;3.95;;;16.50;99.90;;;;;;5031628;28;20048;-68
2022/08/29 03:10:00;;;;;;;10.60;3.90;;;16.50;99.90;;;;;;5015640;28;20063;-68
2022/08/29 03:12:26;;;;;;;7.18;3.83;;;16.50;99.90;;;;;;5031888;28;20073;-68
2022/08/29 03:14:52;;;;;;;10.43;4.30;;;16.50;99.90;;;;;;5031836;28;20095;-68
2022/08/29 03:17:17;;;;;;;7.63;3.80;;;16.50;99.90;;;;;;5031710;28;20045;-68
2022/08/29 03:19:43;;;;;;;9.48;3.72;;;16.50;99.90;;;;;;5031777;28;20526;-68
2022/08/29 03:22:09;;;;;;;10.25;4.32;;;16.50;99.90;;;;;;5031757;28;20052;-68
2022/08/29 03:24:35;;;;;;;8.68;4.10;;;16.50;99.90;;;;;;5031656;28;20049;-68
2022/08/29 03:27:01;;;;;;;7.93;4.35;;;16.50;99.90;;;;;;5031712;28;20045;-68
2022/08/29 03:29:27;;;;;;;8.52;3.70;;;16.50;99.90;;;;;;5031579;28;20083;-68
2022/08/29 03:31:57;;;;;;;9.65;3.80;;;16.50;99.90;;;;;;5031633;28;20038;-68
2022/08/29 03:34:23;;;;;;;8.80;3.53;;;16.50;99.90;;;;;;5031887;28;20060;-68
2022/08/29 03:36:49;;;;;;;8.90;3.95;;;16.50;99.90;;;;;;5031437;28;20520;-68
2022/08/29 03:39:15;;;;;;;8.73;3.60;;;16.50;99.90;;;;;;5031795;28;20080;-68
2022/08/29 03:41:40;;;;;;;11.30;3.90;;;16.50;99.90;;;;;;5031820;28;20430;-68
2022/08/29 03:44:06;;;;;;;10.45;4.13;;;16.50;99.90;;;;;;5031478;28;20251;-68
2022/08/29 03:46:32;;;;;;;6.90;3.42;;;16.50;99.90;;;;;;5031532;28;20033;-68
2022/08/29 03:48:57;;;;;;;9.88;3.65;;;16.50;99.90;;;;;;5031449;28;20087;-68
2022/08/29 03:51:23;;;;;;;8.60;3.55;;;16.50;99.90;;;;;;5031732;28;20045;-68
2022/08/29 03:53:49;;;;;;;9.57;3.45;;;16.50;99.90;;;;;;5031460;28;20049;-68
2022/08/29 03:56:15;;;;;;;9.48;3.80;;;16.50;99.90;;;;;;5031710;28;20077;-68
2022/08/29 03:58:41;;;;;;;10.60;4.15;;;16.50;99.90;;;;;;5031626;28;20049;-68
2022/08/29 04:01:07;;;;;;;7.80;3.60;;;16.50;99.90;;;;;;5031431;28;20436;-68
2022/08/29 04:03:32;;;;;;;10.85;3.47;;;16.50;99.90;;;;;;5031301;28;20049;-68
2022/08/29 04:05:58;;;;;;;7.18;3.33;;;16.50;99.90;;;;;;5031400;28;20037;-68
2022/08/29 04:08:23;;;;;;;9.48;3.30;;;16.40;99.90;;;;;;5031300;28;20037;-68
2022/08/29 04:10:49;;;;;;;7.85;3.30;;;16.50;99.90;;;;;;5031311;28;20037;-68
2022/08/29 04:13:15;;;;;;;7.30;3.60;;;16.40;99.90;;;;;;5031574;28;20120;-68
2022/08/29 04:15:41;;;;;;;7.85;3.55;;;16.40;99.90;;;;;;5031296;28;20391;-68
2022/08/29 04:18:09;;;;;;;9.98;3.67;;;16.40;99.90;;;;;;5031224;28;20073;-68
2022/08/29 04:20:38;;;;;;;8.45;3.75;;;16.40;99.90;;;;;;5032751;28;20045;-68
2022/08/29 04:23:05;;;;;;;10.98;3.72;;;16.30;99.90;;;;;;5034829;28;20421;-68
2022/08/29 04:25:35;;;;;;;11.35;3.80;;;16.30;99.90;;;;;;5034748;28;20037;-68
2022/08/29 04:28:09;;;;;;;7.07;3.42;;;16.30;99.90;;;;;;5034987;28;20125;-68
2022/08/29 04:30:38;;;;;;;10.98;3.50;;;16.30;99.90;;;;;;5034762;28;20041;-68
2022/08/29 04:33:03;;;;;;;11.13;3.70;;;16.20;99.90;;;;;;5034684;28;20046;-68
2022/08/29 04:35:29;;;;;;;12.40;3.20;;;16.20;99.90;;;;;;5034606;28;20045;-68
2022/08/29 04:37:55;;;;;;;11.52;3.45;;;16.20;99.90;;;;;;5034343;28;20053;-68
2022/08/29 04:40:22;;;;;;;12.07;3.42;;;16.20;99.90;;;;;;5034527;28;20051;-68
2022/08/29 04:42:48;;;;;;;8.15;3.40;;;16.20;99.90;;;;;;5034759;28;20506;-68
2022/08/29 04:45:17;;;;;;;6.70;3.47;;;16.20;99.90;;;;;;5017930;28;20057;-68
2022/08/29 04:47:44;;;;;;;9.32;3.20;;;16.20;99.90;;;;;;5034287;28;20406;-68
2022/08/29 04:50:12;;;;;;;9.75;3.60;;;16.20;99.90;;;;;;5034310;28;20048;-68
2022/08/29 04:52:39;;;;;;;11.40;3.65;;;16.20;99.90;;;;;;5034332;28;20047;-68
2022/08/29 04:55:06;;;;;;;10.52;3.85;;;16.20;99.90;;;;;;5034480;28;20045;-68
2022/08/29 04:57:33;;;;;;;9.45;3.42;;;16.20;99.90;;;;;;5034167;28;20041;-68
2022/08/29 04:59:59;;;;;;;9.88;3.22;;;16.10;99.90;;;;;;5034444;28;20061;-68
2022/08/29 05:02:25;;;;;;;12.45;3.88;;;16.10;99.90;;;;;;5034144;28;20159;-68
2022/08/29 05:04:51;;;;;;;10.38;3.60;;;16.20;99.90;;;;;;5034021;28;20501;-68
2022/08/29 05:07:22;;;;;;;8.00;2.90;;;16.20;99.90;;;;;;5033892;28;20048;-68
2022/08/29 05:09:49;;;;;;;6.72;2.80;;;16.20;99.90;;;;;;5034032;28;20038;-68
2022/08/29 05:12:15;;;;;;;8.82;3.15;;;16.20;99.90;;;;;;5035194;28;20120;-68
2022/08/29 05:14:41;;;;;;;7.22;2.72;;;16.20;99.90;;;;;;5034141;28;20130;-68
2022/08/29 05:17:06;;;;;;;6.40;2.75;;;16.20;99.90;;;;;;5033823;28;20052;-68
2022/08/29 05:19:32;;;;;;;10.02;3.25;;;16.20;99.90;;;;;;5033722;28;20045;-68
2022/08/29 05:21:58;;;;;;;7.53;3.20;;;16.20;99.90;;;;;;5034014;28;20041;-68
2022/08/29 05:24:23;;;;;;;9.45;2.92;;;16.20;99.90;;;;;;5033628;28;20441;-68
2022/08/29 05:26:50;;;;;;;12.90;3.17;;;16.30;99.90;;;;;;5033875;28;20047;-68
2022/08/29 05:29:16;;;;;;;10.48;3.40;;;16.30;99.90;;;;;;5033545;28;20091;-68
2022/08/29 05:31:42;;;;;;;10.90;3.17;;;16.40;99.90;;;;;;5032388;28;20083;-68
2022/08/29 05:34:10;;;;;;;7.85;3.05;;;16.40;99.90;;;;;;5033526;28;20037;-68
2022/08/29 05:36:35;;;;;;;11.88;3.50;;;16.50;99.90;;;;;;5033495;28;20095;-68
2022/08/29 05:39:01;;;;;;;9.48;2.85;;;16.50;99.90;;;;;;5033580;28;20037;-68
2022/08/29 05:41:28;;;;;;;9.50;3.13;;;16.50;99.90;;;;;;5033531;28;20151;-68
2022/08/29 05:43:54;;;;;;;7.97;3.13;;;16.60;99.90;;;;;;5033363;28;20079;-68
2022/08/29 05:46:20;;;;;;;10.52;3.42;;;16.60;99.90;;;;;;5033356;28;20034;-68
2022/08/29 05:48:47;;;;;;;8.20;3.40;;;16.60;99.90;;;;;;5033254;28;20100;-68
2022/08/29 05:51:19;;;;;;;11.50;3.58;;;16.70;99.90;;;;;;5033322;28;20112;-67
2022/08/29 05:53:45;;;;;;;12.38;3.22;;;16.70;99.90;;;;;;5033312;28;20042;-68
2022/08/29 05:56:11;;;;;;;7.85;2.90;;;16.70;99.90;;;;;;5033184;28;20410;-67
2022/08/29 05:58:37;;;;;;;12.52;3.33;;;16.80;99.90;;;;;;5033355;28;20045;-67
2022/08/29 06:01:03;;;;;;;10.27;2.97;;;16.80;99.90;;;;;;5033338;28;20048;-67
2022/08/29 06:03:28;;;;;;;9.85;2.90;;;16.80;99.90;;;;;;5032988;28;20379;-67
2022/08/29 06:05:54;;;;;;;5.95;2.30;;;16.90;99.90;;;;;;5033256;28;20049;-67
2022/08/29 06:08:19;;;;;;;13.75;3.38;;;16.90;99.90;;;;;;5032862;28;20486;-68
2022/08/29 06:10:46;;;;;;;9.35;3.03;;;17.00;99.90;;;;;;5033124;28;20060;-67
2022/08/29 06:13:12;;;;;;;9.90;2.63;;;17.00;99.90;;;;;;5033109;28;20077;-67
2022/08/29 06:15:41;;;;;;;6.00;2.72;;;17.10;99.90;;;;;;5032815;28;20095;-67
2022/08/29 06:18:07;;;;;;;11.75;2.70;;;17.20;99.90;;;;;;5032709;28;20124;-68
2022/08/29 06:20:32;;;;;;;11.32;2.90;;;17.20;99.90;;;;;;5032883;28;20141;-68
2022/08/29 06:22:58;;;;;;;9.00;2.53;;;17.40;99.90;;;;;;5032649;28;20060;-67
2022/08/29 06:25:23;;;;;;;7.82;2.42;;;17.40;99.90;;;;;;5032570;28;20046;-67
2022/08/29 06:27:53;;;;;;;8.93;2.58;;;17.50;99.90;;;;;;5032476;28;20049;-68
2022/08/29 06:30:18;;;;;;;10.82;3.15;;;17.60;99.90;;;;;;5016400;28;20041;-67
2022/08/29 06:32:44;;;;;;;8.32;2.63;;;17.70;99.90;;;;;;5032597;28;20473;-67
2022/08/29 06:35:10;;;;;;;8.70;2.20;;;17.70;99.90;;;;;;5032467;28;20114;-67
2022/08/29 06:37:35;;;;;;;8.82;2.33;;;17.80;99.90;;;;;;5032162;28;20127;-67
2022/08/29 06:40:02;;;;;;;9.20;2.50;;;17.80;99.90;;;;;;5032404;28;20153;-67
2022/08/29 06:42:28;;;;;;;7.22;1.92;;;17.80;99.90;;;;;;5032080;28;20052;-67
2022/08/29 06:44:54;;;;;;;5.82;1.90;;;17.90;99.90;;;;;;5032111;28;20034;-68
2022/08/29 06:47:19;;;;;;;11.20;2.33;;;17.80;99.90;;;;;;5032233;28;20087;-67
2022/08/29 06:49:45;;;;;;;14.38;2.53;;;17.90;99.90;;;;;;5032635;28;20037;-68
2022/08/29 06:52:11;;;;;;;7.82;2.08;;;18.00;99.90;;;;;;5032269;28;20568;-68
2022/08/29 06:54:37;;;;;;;8.32;2.28;;;18.00;99.90;;;;;;5032514;28;20098;-68
2022/08/29 06:57:03;;;;;;;9.02;2.63;;;18.00;99.90;;;;;;5032169;28;20498;-68
2022/08/29 06:59:28;;;;;;;6.70;1.75;;;18.10;99.90;;;;;;5015699;28;20037;-68
2022/08/29 07:01:54;;;;;;;6.38;1.70;;;18.10;99.90;;;;;;5032107;28;20207;-68
2022/08/29 07:04:20;;;;;;;7.95;2.17;;;18.20;99.90;;;;;;5031952;28;20056;-68
2022/08/29 07:06:45;;;;;;;9.00;2.08;;;18.20;99.90;;;;;;5032179;28;20037;-68
2022/08/29 07:09:12;;;;;;;5.80;1.90;;;18.30;99.90;;;;;;5032119;28;20128;-68
2022/08/29 07:11:39;;;;;;;12.30;2.30;;;18.30;99.90;;;;;;5032181;28;20041;-68
2022/08/29 07:14:05;;;;;;;8.57;2.33;;;18.30;99.90;;;;;;5032305;28;20041;-68
2022/08/29 07:16:32;;;;;;;5.57;1.90;;;18.30;99.90;;;;;;5031962;28;20379;-68
2022/08/29 07:18:59;;;;;;;7.72;1.92;;;18.40;99.90;;;;;;5031801;28;20041;-68
2022/08/29 07:21:25;;;;;;;9.90;2.42;;;18.40;99.90;;;;;;5032199;28;20045;-68
2022/08/29 07:23:52;;;;;;;9.25;2.17;;;18.40;99.90;;;;;;5031824;28;20041;-68
2022/08/29 07:26:31;;;;;;;6.88;2.30;;;18.50;99.90;;;;;;5031890;28;20498;-68
2022/08/29 07:29:00;;;;;;;9.40;2.10;;;18.50;99.90;;;;;;5031911;28;20037;-68
2022/08/29 07:31:26;;;;;;;10.80;2.15;;;18.60;99.90;;;;;;5031732;28;20047;-68
2022/08/29 07:33:51;;;;;;;6.88;2.45;;;18.60;99.90;;;;;;5031691;28;20041;-68
2022/08/29 07:36:17;;;;;;;10.82;2.35;;;18.70;99.90;;;;;;5031681;28;20044;-68
2022/08/29 07:38:43;;;;;;;6.97;2.35;;;18.80;99.90;;;;;;5032710;28;20064;-68
2022/08/29 07:41:13;;;;;;;11.73;3.03;;;18.90;99.90;;;;;;5031713;28;20052;-68
2022/08/29 07:43:39;;;;;;;14.20;2.95;;;19.00;99.90;;;;;;5015143;28;20030;-68
2022/08/29 07:46:10;;;;;;;9.48;2.58;;;19.10;99.90;;;;;;5031632;28;20549;-68
2022/08/29 07:48:36;;;;;;;12.50;2.50;;;19.20;99.90;;;;;;5031778;28;20045;-68
2022/08/29 07:51:09;;;;;;;9.98;2.72;;;19.30;99.90;;;;;;5031708;28;20059;-68
2022/08/29 07:53:34;;;;;;;8.05;2.22;;;19.50;99.90;;;;;;5031632;28;20037;-68
2022/08/29 07:56:05;;;;;;;13.27;3.17;;;19.50;99.90;;;;;;5033809;28;20043;-68
2022/08/29 07:58:31;;;;;;;12.85;3.17;;;19.60;99.90;;;;;;5035288;28;20075;-68
2022/08/29 08:00:56;;;;;;;11.85;2.40;;;19.70;99.90;;;;;;5035366;28;20041;-68
2022/08/29 08:03:23;;;;;;;11.23;2.83;;;19.70;99.90;;;;;;5035285;28;20045;-67
2022/08/29 08:05:49;;;;;;;7.38;2.55;;;19.80;99.90;;;;;;5035150;28;20107;-68
2022/08/29 08:08:14;;;;;;;8.93;2.20;;;19.90;99.90;;;;;;5035140;28;20064;-68
2022/08/29 08:10:41;;;;;;;9.75;2.58;;;20.10;99.90;;;;;;5035143;28;20107;-67
2022/08/29 08:13:07;;;;;;;11.45;2.88;;;20.30;99.90;;;;;;5035484;28;20132;-68
2022/08/29 08:15:32;;;;;;;11.18;2.92;;;20.50;99.90;;;;;;5035138;28;20509;-68
2022/08/29 08:17:58;;;;;;;9.68;2.53;;;20.70;99.90;;;;;;5035003;28;20116;-68
2022/08/29 08:20:23;;;;;;;10.65;2.40;;;20.90;99.90;;;;;;5035320;28;20045;-68
2022/08/29 08:22:49;;;;;;;7.95;2.60;;;21.00;99.90;;;;;;5034950;28;20502;-68
2022/08/29 08:25:15;;;;;;;7.78;2.17;;;21.00;99.90;;;;;;5034917;28;20096;-67
2022/08/29 08:27:40;;;;;;;9.40;2.28;;;21.10;99.90;;;;;;5034809;28;20088;-68
2022/08/29 08:30:07;;;;;;;7.82;1.90;;;21.20;99.90;;;;;;5034821;28;20116;-67
2022/08/29 08:32:32;;;;;;;8.88;2.50;;;21.40;99.90;;;;;;5034778;28;20124;-67
2022/08/29 08:34:58;;;;;;;8.50;1.83;;;21.50;99.90;;;;;;5034758;28;20073;-67
2022/08/29 08:37:23;;;;;;;10.90;2.15;;;21.70;99.90;;;;;;5018007;28;20111;-68
2022/08/29 08:39:49;;;;;;;8.77;2.58;;;21.80;99.90;;;;;;5034607;28;20056;-68
2022/08/29 08:42:30;;;;;;;11.13;2.35;;;22.00;99.90;;;;;;5034590;28;20121;-68
2022/08/29 08:45:17;;;;;;;8.82;2.38;;;22.00;99.90;;;;;;5034524;28;20041;-69
2022/08/29 08:48:03;;;;;;;10.10;2.10;;;22.00;99.90;;;;;;5034701;28;20048;-68
2022/08/29 08:50:53;;;;;;;9.05;2.05;;;21.90;99.90;;;;;;5034474;28;20045;-68
2022/08/29 08:53:32;;;;;;;6.68;1.90;;;21.70;99.90;;;;;;5035675;28;20512;-68
2022/08/29 08:56:00;;;;;;;9.27;2.40;;;21.60;99.90;;;;;;5034394;28;20037;-68
2022/08/29 08:58:41;;;;;;;8.48;2.25;;;21.50;99.90;;;;;;5034248;28;20563;-69
2022/08/29 09:01:25;;;;;;;9.10;2.45;;;21.50;99.90;;;;;;5034351;28;20533;-69
2022/08/29 09:04:14;;;;;;;8.35;1.98;;;21.40;99.90;;;;;;5034148;28;20065;-69
2022/08/29 09:06:46;;;;;;;10.27;2.33;;;21.40;99.90;;;;;;5015846;28;20119;-69
2022/08/29 09:09:45;;;;;;;7.28;2.60;;;21.40;99.90;;;;;;5034035;28;20087;-69
2022/08/29 09:12:57;;;;;;;10.02;2.42;;;21.50;99.90;;;;;;5034333;28;20037;-69
2022/08/29 09:15:29;;;;;;;9.85;3.08;;;21.40;99.90;;;;;;5015448;28;20079;-69
2022/08/29 09:18:06;;;;;;;9.63;2.67;;;21.40;99.90;;;;;;5033884;28;20041;-69
2022/08/29 09:20:37;;;;;;;11.45;2.78;;;21.40;99.90;;;;;;5033952;28;20056;-69
2022/08/29 09:23:26;;;;;;;12.25;3.10;;;21.40;99.90;;;;;;5033878;28;20041;-69
2022/08/29 09:25:51;;;;;;;9.65;2.53;;;21.50;99.90;;;;;;5033987;28;20057;-69
2022/08/29 09:28:17;;;;;;;8.45;2.42;;;21.40;99.90;;;;;;5035216;28;20037;-70
2022/08/29 09:31:04;;;;;;;12.75;2.85;;;21.50;99.90;;;;;;5033733;28;20127;-69
2022/08/29 09:33:41;;;;;;;10.45;2.75;;;21.60;99.90;;;;;;5033535;28;20084;-69
2022/08/29 09:36:12;;;;;;;11.27;2.88;;;21.70;99.90;;;;;;5033655;28;20045;-69
2022/08/29 09:38:37;;;;;;;9.38;2.58;;;21.80;99.90;;;;;;5033456;28;20127;-69
2022/08/29 09:41:06;;;;;;;9.63;2.97;;;21.90;99.90;;;;;;5033507;28;20096;-69
2022/08/29 09:43:38;;;;;;;12.27;2.47;;;22.00;99.90;;;;;;5033831;28;20123;-69
2022/08/29 09:46:10;;;;;;;12.77;2.60;;;22.00;99.90;;;;;;5033393;28;20045;-69
2022/08/29 09:48:56;;;;;;;8.73;2.50;;;22.00;99.90;;;;;;5033318;28;20041;-69
2022/08/29 09:51:36;;;;;;;10.27;2.92;;;22.00;99.90;;;;;;5009963;28;20041;-69
2022/08/29 09:54:25;;;;;;;11.93;2.65;;;21.90;99.90;;;;;;5033533;28;20060;-71
2022/08/29 09:57:02;;;;;;;10.55;2.65;;;21.80;99.90;;;;;;5033495;28;20143;-68
2022/08/29 09:59:32;;;;;;;10.63;2.78;;;21.70;99.90;;;;;;5033157;28;20363;-68
2022/08/29 10:02:17;;;;;;;11.27;2.78;;;21.70;99.90;;;;;;5033173;28;20061;-68
2022/08/29 10:04:48;;;;;;;12.23;2.90;;;21.70;99.90;;;;;;5032979;28;20045;-68
2022/08/29 10:07:31;;;;;;;10.90;2.90;;;21.70;99.90;;;;;;5032912;28;20049;-68
2022/08/29 10:10:14;;;;;;;13.30;3.00;;;21.80;99.90;;;;;;5033029;28;20041;-68
2022/08/29 10:13:05;;;;;;;10.18;2.83;;;21.90;99.90;;;;;;5016466;28;20042;-68
2022/08/29 10:15:41;;;;;;;11.13;3.40;;;22.10;99.90;;;;;;5033087;28;20042;-68
2022/08/29 10:18:41;;;;;;;13.30;3.38;;;22.60;99.90;;;;;;5032064;28;20045;-68
2022/08/29 10:21:14;;;;;;;10.50;2.67;;;22.80;99.90;;;;;;5033010;28;20075;-68
2022/08/29 10:24:02;;;;;;;7.43;2.42;;;23.00;99.90;;;;;;5032866;28;20521;-68
2022/08/29 10:27:03;;;;;;;14.18;3.60;;;23.00;99.90;;;;;;5032663;28;20379;-68
2022/08/29 10:29:38;;;;;;;11.63;2.75;;;23.00;99.90;;;;;;5025519;28;20528;-68
2022/08/29 10:32:08;;;;;;;13.85;3.33;;;23.00;99.90;;;;;;5032846;28;20041;-68
2022/08/29 10:35:04;;;;;;;10.38;3.17;;;23.10;99.90;;;;;;5032738;28;20049;-68
2022/08/29 10:37:55;;;;;;;13.25;4.10;;;23.20;99.90;;;;;;5032533;28;20064;-68
2022/08/29 10:40:39;;;;;;;14.45;3.63;;;23.30;99.90;;;;;;5032763;28;20053;-68
2022/08/29 10:43:33;;;;;;;10.02;3.38;;;23.60;99.90;;;;;;5032379;28;20133;-68
2022/08/29 10:46:26;;;;;;;12.80;3.38;;;24.00;99.90;;;;;;5032351;28;20046;-68
2022/08/29 10:49:06;;;;;;;10.73;3.35;;;24.20;99.90;;;;;;5032157;28;20042;-68
2022/08/29 10:51:37;;;;;;;15.38;3.85;;;24.40;99.90;;;;;;5032512;28;20049;-68
2022/08/29 10:54:42;;;;;;;11.18;3.17;;;24.40;99.90;;;;;;5032189;28;20041;-68
2022/08/29 10:57:08;;;;;;;11.57;3.30;;;24.30;99.10;;;;;;5032434;28;20045;-68
2022/08/29 10:59:44;;;;;;;11.48;2.95;;;24.20;99.90;;;;;;5031967;28;20414;-68
2022/08/29 11:02:26;;;;;;;8.27;3.15;;;24.20;99.80;;;;;;5032097;28;20080;-68
2022/08/29 11:04:55;;;;;;;10.25;3.20;;;24.20;99.40;;;;;;5032108;28;20041;-68
2022/08/29 11:07:24;;;;;;;11.32;2.97;;;24.10;99.30;;;;;;5032112;28;20034;-68
2022/08/29 11:09:59;;;;;;;9.65;3.25;;;24.00;99.10;;;;;;5031954;28;20037;-68
2022/08/29 11:12:51;;;;;;;11.13;3.00;;;24.00;98.50;;;;;;5031997;28;20144;-68
2022/08/29 11:15:23;;;;;;;17.33;3.65;;;23.90;98.00;;;;;;5031952;28;20056;-68
2022/08/29 11:18:07;;;;;;;10.80;3.53;;;23.80;98.90;;;;;;5016341;28;20110;-68
2022/08/29 11:20:47;;;;;;;6.22;2.30;;;23.80;98.90;;;;;;5031912;28;20041;-68
2022/08/29 11:23:30;;;;;;;8.98;2.70;;;23.60;98.40;;;;;;5031900;28;20409;-68
2022/08/29 11:26:02;;;;;;;9.45;3.30;;;23.50;98.60;;;;;;5031827;28;20394;-68
2022/08/29 11:28:42;;;;;;;9.18;2.80;;;23.40;97.60;;;;;;5032085;28;20520;-68
2022/08/29 11:31:21;;;;;;;8.18;2.50;;;23.30;97.00;;;;;;5035982;28;20116;-68
2022/08/29 11:34:09;;;;;;;8.95;2.83;;;23.30;96.70;;;;;;5035949;28;20137;-68
2022/08/29 11:36:53;;;;;;;7.85;2.97;;;23.20;96.90;;;;;;5035855;28;20486;-68
2022/08/29 11:39:43;;;;;;;8.18;2.83;;;23.20;97.70;;;;;;5035774;28;20029;-68
2022/08/29 11:42:13;;;;;;;7.85;2.67;;;23.20;97.70;;;;;;5036107;28;20167;-68
2022/08/29 11:44:44;;;;;;;7.38;2.78;;;23.20;98.00;;;;;;5036909;28;20087;-68
2022/08/29 11:47:34;;;;;;;7.30;2.22;;;23.20;97.20;;;;;;5035705;28;20049;-68
2022/08/29 11:50:33;;;;;;;9.10;2.80;;;23.30;97.20;;;;;;5035599;28;20045;-68
2022/08/29 11:53:02;;;;;;;7.43;2.42;;;23.30;98.10;;;;;;5035788;28;20046;-68
2022/08/29 11:55:40;;;;;;;8.18;2.30;;;23.40;98.40;;;;;;5035789;28;20048;-68
2022/08/29 11:58:26;;;;;;;9.10;2.85;;;23.50;97.50;;;;;;5035417;28;20080;-68
2022/08/29 12:00:54;;;;;;;7.88;2.70;;;23.60;96.50;;;;;;5035341;28;20050;-68
2022/08/29 12:03:32;;;;;;;9.45;2.80;;;23.50;96.80;;;;;;5035636;28;20128;-68
2022/08/29 12:06:36;;;;;;;10.38;3.03;;;23.60;97.90;;;;;;5035232;28;20045;-68
2022/08/29 12:09:11;;;;;;;7.32;2.90;;;23.60;97.40;;;;;;5035140;28;20080;-68
2022/08/29 12:12:02;;;;;;;12.73;2.92;;;23.60;97.70;;;;;;5035182;28;20124;-68
2022/08/29 12:14:35;;;;;;;8.75;2.85;;;23.70;97.50;;;;;;5035322;28;20133;-68
2022/08/29 12:17:03;;;;;;;9.75;2.95;;;23.80;97.30;;;;;;5035325;28;20037;-68
2022/08/29 12:20:11;;;;;;;8.90;2.50;;;23.70;97.50;;;;;;5035232;28;20045;-68
2022/08/29 12:22:58;;;;;;;11.00;2.78;;;23.80;96.70;;;;;;5035875;28;20470;-68
2022/08/29 12:25:26;;;;;;;12.77;2.83;;;23.80;96.90;;;;;;5034882;28;20045;-68
2022/08/29 12:28:03;;;;;;;11.02;2.90;;;23.80;97.30;;;;;;5034794;28;20041;-68
2022/08/29 12:30:45;;;;;;;11.23;3.15;;;23.70;97.50;;;;;;5034950;28;20048;-68
2022/08/29 12:33:17;;;;;;;8.43;2.75;;;23.70;97.80;;;;;;5034839;28;20571;-68
2022/08/29 12:35:42;;;;;;;10.65;3.22;;;23.70;97.90;;;;;;5034689;28;20073;-68
2022/08/29 12:38:13;;;;;;;10.45;3.17;;;23.70;98.50;;;;;;5034492;28;20080;-68
2022/08/29 12:40:50;;;;;;;12.40;2.67;;;23.70;98.30;;;;;;5033916;28;20045;-68
2022/08/29 12:43:32;;;;;;;13.38;3.28;;;23.60;98.20;;;;;;5034895;28;20402;-68
2022/08/29 12:46:00;;;;;;;9.77;2.70;;;23.60;97.90;;;;;;5018038;28;20184;-68
2022/08/29 12:48:34;;;;;;;8.52;2.63;;;23.60;98.20;;;;;;5034450;28;20037;-68
2022/08/29 12:51:01;;;;;;;9.93;2.30;;;23.60;97.40;;;;;;5034769;28;20069;-68
2022/08/29 12:53:33;;;;;;;13.93;3.10;;;23.50;97.10;;;;;;5034411;28;20417;-68
2022/08/29 12:56:17;;;;;;;;;;;23.60;96.50;;;;;;5018612;28;20131;-68
2022/08/29 12:58:52;;;;;;;8.15;2.55;;;23.60;97.30;;;;;;5034281;28;19921;-68
2022/08/29 13:01:24;;;;;;;7.60;2.20;;;23.60;96.60;;;;;;5034364;28;20042;-68
2022/08/29 13:04:05;;;;;;;9.27;2.63;;;23.70;96.40;;;;;;5034428;28;20494;-68
2022/08/29 13:06:32;;;;;;;6.13;2.50;;;23.80;95.50;;;;;;5034196;28;20518;-68